Terminal Aerodrome Forecast
Issued by NWS Wilmington, NC

Home | Current Version | Previous Version | Text Only | Print | Product List | Glossary On
Versions: 1 2 3 4 5 6 7 8 9 10 11 12
414
FTUS42 KILM 171720
TAFMYR
TAF
KMYR 171720Z 1718/1818 17004KT P6SM SCT250
     FM172100 00000KT P6SM BKN090
     FM180400 VRB02KT 5SM BR BKN025
     FM181400 00000KT 6SM HZ BR OVC050=

USA.gov is the U.S. government's official web portal to all federal, state and local government web resources and services.